Station: ROSEWORTHY AWS

  Atmospheric Gas Attenuation - ITU Rec 676-11   --------------- db/100km ---------------
Date Time Temp RH % AH g/m3 Dew Point Wind Direction Speed kph Gust kph Barometer mB Rainfall Since 9am 24GHz 47GHz 76GHz 122GHz 134GHz 241GHz
28 14:00 23.4 39 8.2 8.7 15 24 1016.6 0 18.3 22.8 34.1 89.2 82.8 284.8
28 13:50 23.5 40 8.46 9.1 13 17 1016.8 0 18.8 23.2 34.9 91.6 85.7 295.0
28 13:40 22.9 42 8.58 9.3 22 28 1016.9 0 19.1 23.5 35.6 93.4 87.7 302.1
28 13:30 24.4 40 8.9 9.9 11 20 1016.9 0 19.7 23.6 36.1 94.7 89.8 309.5
28 13:20 23.1 35 7.23 6.8 11 13 1017.2 0 16.3 21.6 30.9 80.7 72.1 247.5
28 13:10 22.5 36 7.19 6.7 13 15 1017.3 0 16.2 21.7 31.0 80.9 72.2 247.8
28 13:00 22.9 38 7.77 7.8 13 20 1017.3 0 17.4 22.4 32.8 85.8 78.4 269.5
28 12:50 22.4 37 7.35 7 9 11 1017.6 0 16.6 21.9 31.6 82.5 74.1 254.4
28 12:40 22.8 37 7.52 7.4 11 17 1017.7 0 16.9 22.1 32.0 83.7 75.7 259.9
28 12:30 22.3 37 7.31 6.9 13 22 1017.8 0 16.5 21.9 31.5 82.3 73.8 253.2
28 12:20 22.7 37 7.48 7.3 13 17 1018.1 0 16.8 22.0 31.9 83.5 75.4 258.8
28 12:10 21.5 37 6.98 6.2 11 13 1018.3 0 15.8 21.6 30.7 80.1 70.8 242.7
28 12:00 21.7 42 8.01 8.2 11 19 1018.4 0 18.0 23.0 34.2 89.5 82.4 283.5
28 11:50 22.2 40 7.85 8 9 11 1018.6 0 17.6 22.7 33.4 87.4 80.1 275.3
28 11:40 22.4 40 7.94 8.1 15 17 1018.7 0 17.8 22.8 33.7 88.1 80.9 278.3
28 11:30 21.3 45 8.39 8.9 9 13 1018.8 0 18.8 23.7 35.7 93.6 87.4 300.7
28 11:20 21 46 8.43 8.9 9 11 1019 0 18.9 23.9 36.0 94.3 88.2 303.5
28 11:10 21 44 8.06 8.3 7 11 1019 0 18.1 23.3 34.7 90.8 83.8 288.1
28 11:00 20.8 44 7.97 8.1 6 13 1019.1 0 17.9 23.2 34.4 90.1 82.9 285.1
28 10:50 20.3 46 8.09 8.3 11 11 1019.4 0 18.2 23.6 35.1 91.9 84.9 292.0
28 10:40 20 49 8.47 9 7 11 1019.4 0 19.0 24.2 36.6 95.9 89.8 309.1
28 10:30 19.3 54 8.96 9.8 7 11 1019.3 0 20.1 25.1 38.8 101.7 96.7 333.0
28 10:20 18.8 56 9.02 9.8 7 9 1019.4 0 20.2 25.4 39.2 102.9 98.0 337.8
28 10:10 18.6 59 9.39 10.4 9 11 1019.5 0 21.0 26.0 40.8 107.0 103.0 355.1
28 10:00 17.9 59 9.01 9.8 7 13 1019.5 0 20.3 25.6 39.6 104.0 99.0 341.2
28 09:50 17.1 59 8.59 9 6 9 1019.6 0 19.4 25.2 38.4 100.7 94.7 325.9
28 09:40 16.8 62 8.86 9.5 7 11 1019.8 0 20.0 25.7 39.6 103.9 98.5 339.3
28 09:30 16.7 63 8.95 9.6 4 9 1019.7 0 20.2 25.9 40.0 105.0 99.8 343.7
28 09:20 15.8 66 8.88 9.5 6 7 1019.9 0 20.1 26.0 40.2 105.5 100.1 344.5
28 09:10 15.3 68 8.88 9.4 7 11 1020 0 20.1 26.2 40.5 106.1 100.7 346.7
28 09:00 15.1 67 8.64 9 4 11 1020 0 19.6 25.8 39.6 103.9 97.8 336.6
28 08:50 14.6 71 8.88 9.4 7 7 1020 0.4 20.1 26.4 40.8 107.1 101.6 349.8
28 08:40 13.9 73 8.75 9.1 2 6 1020 0.4 19.9 26.4 40.7 106.6 100.8 346.9
28 08:30 13.8 77 9.17 9.8 0 0 1019.8 0.4 20.8 27.1 42.4 111.3 106.6 367.0
28 08:20 12.5 87 9.57 10.4 0 0 1019.9 0.4 21.7 28.2 44.8 117.7 114.0 392.7
28 08:10 12.5 92 10.12 11.2 0 0 1019.9 0.4 22.9 29.1 47.2 124.0 121.7 419.8
28 08:00 11.3 97 9.9 10.8 0 2 1019.7 0.4 22.5 29.1 46.9 123.4 120.5 415.3
28 07:50 10.9 11.2 2 6 1019.7 0.4
28 07:40 10.4 11.1 6 6 1019.6 0.4
28 07:30 9.7 100 9.22 9.7 7 9 1019.3 0.4 21.1 28.4 44.9 117.9 113.1 389.3
28 07:20 8.6 9.3 7 9 1019.2 0.4
28 07:10 7.5 8.2 9 11 1019.2 0.4
28 07:00 6.5 100 7.5 6.5 11 13 1019 0.4 17.6 26.4 39.2 102.6 92.9 318.3
28 06:50 5.6 6.2 11 13 1019 0.4
28 06:40 5.2 5.8 11 11 1018.9 0.4
28 06:30 4.8 100 6.71 4.8 11 15 1018.7 0.4 15.9 25.6 36.6 95.7 83.8 286.0
28 06:20 4.9 5.3 11 11 1018.7 0.4
28 06:10 5 5.4 13 13 1018.6 0.4
28 06:00 4.7 100 6.67 4.7 13 15 1018.4 0.4 15.8 25.5 36.5 95.4 83.3 284.4
28 05:50 4.6 5 11 13 1018.4 0.4
28 05:40 4.8 5.2 13 15 1018.4 0.4
28 05:30 4.6 100 6.62 4.6 13 17 1018.2 0.4 15.7 25.5 36.3 94.9 82.7 282.3
28 05:20 4.4 4.8 13 13 1018.3 0.4
28 05:10 4.4 4.8 13 15 1018.2 0.4
28 04:50 4.6 5 11 13 1018 0.4
28 04:40 4 4.3 11 11 1018 0.4
28 04:30 3.7 100 6.24 3.7 7 9 1018 0.4 15.0 25.1 35.1 91.7 78.4 266.9
28 04:20 4.1 4.2 9 9 1018.1 0.4
28 04:10 4 4.1 9 9 1018.2 0.4
28 04:00 4.4 100 6.53 4.4 6 7 1018.1 0.4 15.6 25.4 36.0 94.1 81.7 278.6
28 03:50 5.2 5.5 6 6 1018.2 0.4
28 03:40 5 5.3 6 7 1018.2 0.4
28 03:30 5 100 6.8 5 11 13 1018.1 0.4 16.1 25.6 36.9 96.4 84.8 289.6
28 03:20 5.1 5.5 11 13 1018.2 0.4
28 03:10 5.6 6 11 13 1018.3 0.4
28 03:00 5.7 100 7.12 5.7 15 15 1018.1 0.4 16.8 26.0 37.9 99.2 88.5 302.6
28 02:50 5.9 6.3 15 15 1018.3 0.4
28 02:40 6.1 6.5 15 15 1018.4 0.4
28 02:30 6 100 7.26 6 11 13 1018.4 0.4 17.1 26.2 38.3 100.4 90.1 308.3
28 02:20 5.9 6.3 9 11 1018.6 0.4
28 02:10 5.8 6.1 11 11 1018.7 0.4
28 02:00 5.1 100 6.85 5.1 7 11 1018.7 0.4 16.2 25.7 37.0 96.9 85.4 291.8
28 01:50 5.2 5.3 6 7 1018.9 0.4
28 01:40 5 5.1 6 6 1019 0.4
28 01:30 5.4 100 6.98 5.4 7 11 1018.9 0.4 16.5 25.9 37.5 98.1 86.9 297.1
28 01:20 5.7 5.8 7 9 1019 0.4
28 01:10 5.8 5.9 6 7 1019.1 0.4
28 01:00 6.2 100 7.36 6.2 9 11 1019 0.4 17.3 26.3 38.7 101.4 91.3 312.6
28 00:50 6.2 6.3 7 9 1019.1 0.4
28 00:40 6 100 7.26 6 11 13 1019.2 0.4 17.1 26.2 38.4 100.5 90.2 308.5
28 00:30 7.4 100 7.96 7.4 11 13 1019.3 0.4 18.5 27.0 40.7 106.6 98.3 337.3
28 00:20 7 7.1 11 11 1019.4 0.2
28 00:10 6.8 6.9 4 6 1019.6 0.2
28 00:00 6.8 100 7.65 6.8 9 11 1019.3 0.2 17.9 26.6 39.7 103.9 94.7 324.5
27 23:50 6.9 100 7.7 6.9 11 11 1019.4 0.2 18.0 26.7 39.8 104.4 95.3 326.6
27 23:40 7.6 100 8.06 7.6 7 9 1019.5 0.2 18.7 27.1 41.0 107.5 99.5 341.4
27 23:30 7.9 100 8.22 7.9 7 9 1019.5 0.2 19.1 27.3 41.5 109.0 101.4 348.0
27 23:20 8.3 8.4 9 9 1019.5 0.2
27 23:10 8.5 8.6 11 13 1019.6 0.2
27 23:00 8.7 100 8.65 8.7 13 15 1019.5 0.2 19.9 27.8 43.0 112.8 106.4 365.7
27 22:50 8.9 9.2 13 15 1019.5 0.2
27 22:40 8.8 9.1 11 11 1019.5 0.2
27 22:30 8.3 100 8.43 8.3 11 13 1019.4 0.2 19.5 27.5 42.2 110.8 103.8 356.6
27 22:20 8.4 100 8.49 8.4 9 11 1019.4 0.2 19.6 27.6 42.4 111.4 104.5 359.1
27 22:10 7.8 99 8.08 7.7 9 9 1019.5 0.2 18.8 27.1 41.0 107.5 99.5 341.5
27 22:00 8.2 99 8.29 8.1 9 11 1019.3 0.2 19.2 27.3 41.7 109.3 101.9 350.1
27 21:50 8.2 98 8.21 7.9 9 11 1019.3 0.2 19.0 27.2 41.3 108.4 100.8 346.1
27 21:40 8.8 98 8.53 8.5 11 11 1019.2 0.2 19.7 27.5 42.4 111.2 104.5 359.2
27 21:30 8.8 97 8.45 8.4 9 13 1019.2 0.2 19.5 27.4 42.0 110.3 103.4 355.2
27 21:20 9.2 97 8.66 8.7 6 9 1019.2 0.2 19.9 27.6 42.7 112.1 105.8 363.8

Last Refresh: 28-Oct-2020 14:16:17

Most of the information presented on this site is sourced from the Bureau of Meteorology.  Copyright in all material sourced from the Bureau of Meteorology resides with the Commonwealth of Australia.